sensor_id;sensor_type;location;lat;lon;timestamp;pressure;altitude;pressure_sealevel;temperature;humidity
16194;BME280;8204;53.582;10.080;2023-04-10T12:27:36;101520.31;;;21.88;67.35
16194;BME280;8204;53.582;10.080;2023-04-10T12:30:07;101509.84;;;21.86;66.17
16194;BME280;8204;53.582;10.080;2023-04-10T12:32:36;101512.28;;;21.94;65.65
16194;BME280;8204;53.582;10.080;2023-04-10T12:35:06;101501.38;;;21.96;65.27
16194;BME280;8204;53.582;10.080;2023-04-10T12:37:47;101504.28;;;21.94;64.32
16194;BME280;8204;53.582;10.080;2023-04-10T12:40:17;101505.84;;;22.02;65.77
16194;BME280;8204;53.582;10.080;2023-04-10T12:42:49;101493.66;;;21.81;62.73
16194;BME280;8204;53.582;10.080;2023-04-10T12:45:19;101490.00;;;21.76;64.29
16194;BME280;8204;53.582;10.080;2023-04-10T12:47:49;101490.38;;;21.79;64.52
16194;BME280;8204;53.582;10.080;2023-04-10T12:50:19;101485.66;;;21.81;65.83
16194;BME280;8204;53.582;10.080;2023-04-10T12:53:01;101476.84;;;21.81;63.20
16194;BME280;8204;53.582;10.080;2023-04-10T12:55:32;101473.91;;;21.89;64.07
16194;BME280;8204;53.582;10.080;2023-04-10T12:58:19;101481.75;;;21.84;63.05
16194;BME280;8204;53.582;10.080;2023-04-10T13:00:53;101462.84;;;21.85;63.46
16194;BME280;8204;53.582;10.080;2023-04-10T13:03:23;101464.84;;;21.96;63.77
16194;BME280;8204;53.582;10.080;2023-04-10T13:05:52;101454.56;;;22.00;62.14
16194;BME280;8204;53.582;10.080;2023-04-10T13:08:21;101457.53;;;22.16;64.21
16194;BME280;8204;53.582;10.080;2023-04-10T13:10:51;101444.56;;;22.19;63.22
16194;BME280;8204;53.582;10.080;2023-04-10T13:13:22;101437.53;;;22.25;62.69
16194;BME280;8204;53.582;10.080;2023-04-10T13:15:51;101435.47;;;22.27;63.11
16194;BME280;8204;53.582;10.080;2023-04-10T13:18:20;101431.38;;;22.24;61.11
16194;BME280;8204;53.582;10.080;2023-04-10T13:20:50;101424.63;;;22.22;60.50
16194;BME280;8204;53.582;10.080;2023-04-10T13:23:19;101414.19;;;22.14;59.75
16194;BME280;8204;53.582;10.080;2023-04-10T13:25:48;101411.38;;;22.09;59.56
16194;BME280;8204;53.582;10.080;2023-04-10T13:28:18;101400.63;;;22.15;60.31
16194;BME280;8204;53.582;10.080;2023-04-10T13:30:51;101406.34;;;22.19;61.32
16194;BME280;8204;53.582;10.080;2023-04-10T13:33:20;101402.91;;;22.12;61.23
16194;BME280;8204;53.582;10.080;2023-04-10T13:35:49;101401.94;;;22.06;60.90
16194;BME280;8204;53.582;10.080;2023-04-10T13:38:18;101388.47;;;21.95;60.74
16194;BME280;8204;53.582;10.080;2023-04-10T13:40:47;101383.13;;;21.95;62.09
16194;BME280;8204;53.582;10.080;2023-04-10T13:43:16;101375.81;;;21.84;60.90
16194;BME280;8204;53.582;10.080;2023-04-10T13:45:45;101365.19;;;21.78;61.37
16194;BME280;8204;53.582;10.080;2023-04-10T13:48:17;101358.28;;;21.70;62.99
16194;BME280;8204;53.582;10.080;2023-04-10T13:50:46;101366.94;;;21.59;62.48
16194;BME280;8204;53.582;10.080;2023-04-10T13:53:14;101369.22;;;21.56;63.72
16194;BME280;8204;53.582;10.080;2023-04-10T13:55:43;101349.97;;;21.47;62.81
16194;BME280;8204;53.582;10.080;2023-04-10T13:58:14;101342.81;;;21.41;62.55
16194;BME280;8204;53.582;10.080;2023-04-10T14:00:44;101341.19;;;21.40;63.78
16194;BME280;8204;53.582;10.080;2023-04-10T14:03:13;101329.34;;;21.30;63.71
16194;BME280;8204;53.582;10.080;2023-04-10T14:05:46;101320.31;;;21.31;64.56
16194;BME280;8204;53.582;10.080;2023-04-10T14:08:15;101317.69;;;21.25;65.45
16194;BME280;8204;53.582;10.080;2023-04-10T14:10:45;101306.03;;;21.13;65.41
16194;BME280;8204;53.582;10.080;2023-04-10T14:13:15;101309.84;;;20.99;64.94
16194;BME280;8204;53.582;10.080;2023-04-10T14:15:46;101301.00;;;21.05;65.69
16194;BME280;8204;53.582;10.080;2023-04-10T14:18:16;101293.78;;;21.12;67.03
16194;BME280;8204;53.582;10.080;2023-04-10T14:20:48;101295.38;;;21.13;66.54
16194;BME280;8204;53.582;10.080;2023-04-10T14:23:18;101279.41;;;21.13;66.73
16194;BME280;8204;53.582;10.080;2023-04-10T14:25:49;101270.56;;;21.19;67.33
16194;BME280;8204;53.582;10.080;2023-04-10T14:28:19;101270.75;;;21.24;67.19
16194;BME280;8204;53.582;10.080;2023-04-10T14:30:50;101272.78;;;21.22;66.35
16194;BME280;8204;53.582;10.080;2023-04-10T14:33:19;101269.50;;;21.20;67.34
16194;BME280;8204;53.582;10.080;2023-04-10T14:35:52;101258.28;;;21.18;67.97
16194;BME280;8204;53.582;10.080;2023-04-10T14:38:21;101258.84;;;21.20;68.59
16194;BME280;8204;53.582;10.080;2023-04-10T14:40:49;101248.63;;;21.17;67.20
16194;BME280;8204;53.582;10.080;2023-04-10T14:43:18;101241.63;;;21.22;67.94
16194;BME280;8204;53.582;10.080;2023-04-10T14:45:47;101217.41;;;21.24;67.44
16194;BME280;8204;53.582;10.080;2023-04-10T14:48:16;101220.72;;;21.19;68.82
16194;BME280;8204;53.582;10.080;2023-04-10T14:50:45;101212.88;;;21.30;69.25
16194;BME280;8204;53.582;10.080;2023-04-10T14:53:17;101211.13;;;21.42;67.92
16194;BME280;8204;53.582;10.080;2023-04-10T14:55:47;101212.19;;;21.66;68.84
16194;BME280;8204;53.582;10.080;2023-04-10T14:58:16;101197.25;;;21.83;67.98
16194;BME280;8204;53.582;10.080;2023-04-10T15:00:45;101192.38;;;21.80;67.37
16194;BME280;8204;53.582;10.080;2023-04-10T15:03:15;101178.28;;;21.91;68.49
16194;BME280;8204;53.582;10.080;2023-04-10T15:05:44;101173.22;;;22.01;69.19
16194;BME280;8204;53.582;10.080;2023-04-10T15:08:12;101167.03;;;22.06;67.37
16194;BME280;8204;53.582;10.080;2023-04-10T15:10:45;101159.88;;;22.01;65.91
16194;BME280;8204;53.582;10.080;2023-04-10T15:13:15;101160.63;;;22.07;66.12
16194;BME280;8204;53.582;10.080;2023-04-10T15:15:44;101157.06;;;21.96;64.09
16194;BME280;8204;53.582;10.080;2023-04-10T15:18:14;101147.53;;;21.88;64.08
16194;BME280;8204;53.582;10.080;2023-04-10T15:20:43;101148.31;;;21.46;64.78
16194;BME280;8204;53.582;10.080;2023-04-10T15:23:12;101150.94;;;21.53;65.65
16194;BME280;8204;53.582;10.080;2023-04-10T15:25:40;101140.91;;;21.48;65.74
16194;BME280;8204;53.582;10.080;2023-04-10T15:28:13;101125.69;;;21.55;67.90
16194;BME280;8204;53.582;10.080;2023-04-10T15:30:42;101127.34;;;21.50;67.47
16194;BME280;8204;53.582;10.080;2023-04-10T15:33:14;101124.38;;;21.40;68.89
16194;BME280;8204;53.582;10.080;2023-04-10T15:35:47;101121.34;;;21.36;69.76
16194;BME280;8204;53.582;10.080;2023-04-10T15:38:16;101117.03;;;21.35;69.52
16194;BME280;8204;53.582;10.080;2023-04-10T15:40:45;101105.38;;;21.30;69.88
16194;BME280;8204;53.582;10.080;2023-04-10T15:43:16;101095.31;;;21.32;69.73
16194;BME280;8204;53.582;10.080;2023-04-10T15:45:46;101082.38;;;21.35;68.99
16194;BME280;8204;53.582;10.080;2023-04-10T15:48:15;101081.50;;;21.41;69.73
16194;BME280;8204;53.582;10.080;2023-04-10T15:50:44;101071.09;;;21.58;68.46
16194;BME280;8204;53.582;10.080;2023-04-10T15:53:14;101069.47;;;21.57;67.96
16194;BME280;8204;53.582;10.080;2023-04-10T15:55:42;101056.94;;;21.75;68.12
16194;BME280;8204;53.582;10.080;2023-04-10T15:58:11;101060.84;;;21.91;67.49
16194;BME280;8204;53.582;10.080;2023-04-10T16:00:43;101056.69;;;21.95;67.30
16194;BME280;8204;53.582;10.080;2023-04-10T16:03:11;101060.44;;;21.94;66.51
16194;BME280;8204;53.582;10.080;2023-04-10T16:05:40;101059.97;;;21.97;67.15
16194;BME280;8204;53.582;10.080;2023-04-10T16:08:09;101050.72;;;21.81;66.11
16194;BME280;8204;53.582;10.080;2023-04-10T16:10:38;101047.91;;;21.76;67.06
16194;BME280;8204;53.582;10.080;2023-04-10T16:13:07;101040.75;;;21.52;66.38
16194;BME280;8204;53.582;10.080;2023-04-10T16:15:36;101040.00;;;21.27;67.02
16194;BME280;8204;53.582;10.080;2023-04-10T16:18:08;101038.72;;;21.12;67.40
16194;BME280;8204;53.582;10.080;2023-04-10T16:20:36;101021.44;;;20.97;67.87
16194;BME280;8204;53.582;10.080;2023-04-10T16:23:08;101025.53;;;20.68;68.26
16194;BME280;8204;53.582;10.080;2023-04-10T16:25:38;101013.50;;;20.59;69.77
16194;BME280;8204;53.582;10.080;2023-04-10T16:28:07;101008.44;;;20.52;70.64
16194;BME280;8204;53.582;10.080;2023-04-10T16:30:36;101011.00;;;20.40;71.67
16194;BME280;8204;53.582;10.080;2023-04-10T16:33:07;101006.97;;;20.31;72.24
16194;BME280;8204;53.582;10.080;2023-04-10T16:35:36;101004.22;;;20.13;73.21
16194;BME280;8204;53.582;10.080;2023-04-10T16:38:05;100990.72;;;20.08;74.71
16194;BME280;8204;53.582;10.080;2023-04-10T16:40:34;100985.84;;;20.05;74.99
16194;BME280;8204;53.582;10.080;2023-04-10T16:43:04;100988.34;;;19.94;75.74
16194;BME280;8204;53.582;10.080;2023-04-10T16:45:33;100983.50;;;19.72;75.62
16194;BME280;8204;53.582;10.080;2023-04-10T16:48:03;100986.63;;;19.62;76.88
16194;BME280;8204;53.582;10.080;2023-04-10T16:50:35;100966.03;;;19.45;76.16
16194;BME280;8204;53.582;10.080;2023-04-10T16:53:04;100970.75;;;19.43;77.24
16194;BME280;8204;53.582;10.080;2023-04-10T16:55:33;100977.50;;;19.39;78.41
16194;BME280;8204;53.582;10.080;2023-04-10T16:58:03;100963.00;;;19.35;78.74
16194;BME280;8204;53.582;10.080;2023-04-10T17:00:32;100953.22;;;19.29;79.53
16194;BME280;8204;53.582;10.080;2023-04-10T17:03:01;100942.59;;;19.29;80.01
16194;BME280;8204;53.582;10.080;2023-04-10T17:05:35;100943.63;;;19.28;79.80
16194;BME280;8204;53.582;10.080;2023-04-10T17:08:04;100936.28;;;19.17;80.39
16194;BME280;8204;53.582;10.080;2023-04-10T17:10:34;100933.03;;;19.15;80.52
16194;BME280;8204;53.582;10.080;2023-04-10T17:13:02;100917.09;;;19.08;81.35
16194;BME280;8204;53.582;10.080;2023-04-10T17:15:31;100920.75;;;19.07;81.79
16194;BME280;8204;53.582;10.080;2023-04-10T17:18:00;100918.72;;;19.03;82.76
16194;BME280;8204;53.582;10.080;2023-04-10T17:20:29;100912.63;;;18.96;82.61
16194;BME280;8204;53.582;10.080;2023-04-10T17:23:00;100912.63;;;18.96;82.51
16194;BME280;8204;53.582;10.080;2023-04-10T17:25:29;100904.88;;;18.88;83.86
16194;BME280;8204;53.582;10.080;2023-04-10T17:27:58;100902.63;;;18.72;83.73
16194;BME280;8204;53.582;10.080;2023-04-10T17:30:28;100907.38;;;18.70;84.50
16194;BME280;8204;53.582;10.080;2023-04-10T17:32:57;100900.63;;;18.68;85.39
16194;BME280;8204;53.582;10.080;2023-04-10T17:35:26;100910.84;;;18.58;85.84
16194;BME280;8204;53.582;10.080;2023-04-10T17:37:55;100906.94;;;18.60;85.57
16194;BME280;8204;53.582;10.080;2023-04-10T17:40:26;100904.72;;;18.51;86.57
16194;BME280;8204;53.582;10.080;2023-04-10T17:42:55;100910.44;;;18.54;86.56
16194;BME280;8204;53.582;10.080;2023-04-10T17:45:24;100900.84;;;18.53;86.95
16194;BME280;8204;53.582;10.080;2023-04-10T17:48:04;100902.69;;;18.53;87.51
16194;BME280;8204;53.582;10.080;2023-04-10T17:50:39;100904.31;;;18.47;87.75
16194;BME280;8204;53.582;10.080;2023-04-10T17:53:08;100898.41;;;18.39;86.90
16194;BME280;8204;53.582;10.080;2023-04-10T17:55:40;100898.63;;;18.37;88.98
16194;BME280;8204;53.582;10.080;2023-04-10T17:58:10;100881.03;;;18.30;88.31
16194;BME280;8204;53.582;10.080;2023-04-10T18:00:40;100877.19;;;18.26;87.99
16194;BME280;8204;53.582;10.080;2023-04-10T18:03:09;100871.84;;;18.20;88.86
16194;BME280;8204;53.582;10.080;2023-04-10T18:05:38;100873.28;;;18.09;89.15
16194;BME280;8204;53.582;10.080;2023-04-10T18:08:07;100871.22;;;18.05;90.16
16194;BME280;8204;53.582;10.080;2023-04-10T18:10:36;100867.34;;;18.07;90.68
16194;BME280;8204;53.582;10.080;2023-04-10T18:13:07;100873.44;;;17.95;90.38
16194;BME280;8204;53.582;10.080;2023-04-10T18:15:37;100869.78;;;17.89;90.88
16194;BME280;8204;53.582;10.080;2023-04-10T18:18:06;100861.22;;;17.87;91.22
16194;BME280;8204;53.582;10.080;2023-04-10T18:20:34;100868.56;;;17.79;91.21
16194;BME280;8204;53.582;10.080;2023-04-10T18:23:03;100859.78;;;17.85;91.24
16194;BME280;8204;53.582;10.080;2023-04-10T18:25:33;100866.91;;;17.84;91.55
16194;BME280;8204;53.582;10.080;2023-04-10T18:28:02;100865.69;;;17.80;92.69
16194;BME280;8204;53.582;10.080;2023-04-10T18:30:34;100865.28;;;17.77;92.62
16194;BME280;8204;53.582;10.080;2023-04-10T18:33:03;100858.94;;;17.71;92.38
16194;BME280;8204;53.582;10.080;2023-04-10T18:35:33;100864.88;;;17.73;93.29
16194;BME280;8204;53.582;10.080;2023-04-10T18:38:02;100862.19;;;17.67;93.24
16194;BME280;8204;53.582;10.080;2023-04-10T18:40:31;100847.31;;;17.66;94.33
16194;BME280;8204;53.582;10.080;2023-04-10T18:43:01;100857.69;;;17.61;94.18
16194;BME280;8204;53.582;10.080;2023-04-10T18:45:30;100852.19;;;17.56;93.96
16194;BME280;8204;53.582;10.080;2023-04-10T18:48:03;100850.13;;;17.52;95.01
16194;BME280;8204;53.582;10.080;2023-04-10T18:50:33;100842.81;;;17.54;94.93
16194;BME280;8204;53.582;10.080;2023-04-10T18:53:03;100841.63;;;17.62;95.61
16194;BME280;8204;53.582;10.080;2023-04-10T18:55:32;100843.00;;;17.58;94.99
16194;BME280;8204;53.582;10.080;2023-04-10T18:58:01;100829.34;;;17.55;95.50
16194;BME280;8204;53.582;10.080;2023-04-10T19:00:30;100828.50;;;17.48;95.74
16194;BME280;8204;53.582;10.080;2023-04-10T19:03:01;100830.56;;;17.46;95.95
16194;BME280;8204;53.582;10.080;2023-04-10T19:05:30;100825.28;;;17.46;96.29
16194;BME280;8204;53.582;10.080;2023-04-10T19:07:59;100821.78;;;17.46;96.04
16194;BME280;8204;53.582;10.080;2023-04-10T19:10:28;100809.75;;;17.43;95.33
16194;BME280;8204;53.582;10.080;2023-04-10T19:12:57;100811.78;;;17.41;97.18
16194;BME280;8204;53.582;10.080;2023-04-10T19:15:25;100816.66;;;17.38;97.04
16194;BME280;8204;53.582;10.080;2023-04-10T19:17:53;100798.75;;;17.33;97.35
16194;BME280;8204;53.582;10.080;2023-04-10T19:20:24;100798.94;;;17.32;97.23
16194;BME280;8204;53.582;10.080;2023-04-10T19:22:52;100800.56;;;17.33;97.88
16194;BME280;8204;53.582;10.080;2023-04-10T19:25:20;100802.75;;;17.23;97.27
16194;BME280;8204;53.582;10.080;2023-04-10T19:27:48;100795.00;;;17.21;97.22
16194;BME280;8204;53.582;10.080;2023-04-10T19:30:17;100802.34;;;17.19;97.75
16194;BME280;8204;53.582;10.080;2023-04-10T19:32:45;100806.00;;;17.18;97.87
16194;BME280;8204;53.582;10.080;2023-04-10T19:35:14;100784.00;;;17.24;97.45
16194;BME280;8204;53.582;10.080;2023-04-10T19:37:44;100766.91;;;17.20;98.48
16194;BME280;8204;53.582;10.080;2023-04-10T19:40:12;100765.28;;;17.19;99.07
16194;BME280;8204;53.582;10.080;2023-04-10T19:42:40;100782.78;;;17.20;99.02
16194;BME280;8204;53.582;10.080;2023-04-10T19:45:10;100777.88;;;17.17;98.78
16194;BME280;8204;53.582;10.080;2023-04-10T19:47:38;100768.13;;;17.18;98.92
16194;BME280;8204;53.582;10.080;2023-04-10T19:50:07;100757.91;;;17.21;98.48
16194;BME280;8204;53.582;10.080;2023-04-10T19:52:37;100751.00;;;17.20;98.82
16194;BME280;8204;53.582;10.080;2023-04-10T19:55:08;100742.25;;;17.20;98.21
16194;BME280;8204;53.582;10.080;2023-04-10T19:57:36;100736.53;;;17.16;98.24
16194;BME280;8204;53.582;10.080;2023-04-10T20:00:06;100727.56;;;17.11;98.95
16194;BME280;8204;53.582;10.080;2023-04-10T20:02:34;100720.00;;;17.08;98.83
16194;BME280;8204;53.582;10.080;2023-04-10T20:05:04;100730.19;;;16.98;98.60
16194;BME280;8204;53.582;10.080;2023-04-10T20:07:33;100721.19;;;16.99;97.96
16194;BME280;8204;53.582;10.080;2023-04-10T20:10:02;100723.44;;;16.95;98.31
16194;BME280;8204;53.582;10.080;2023-04-10T20:12:34;100720.59;;;17.03;98.97
16194;BME280;8204;53.582;10.080;2023-04-10T20:15:04;100728.56;;;17.03;97.69
16194;BME280;8204;53.582;10.080;2023-04-10T20:17:33;100719.78;;;16.96;98.03
16194;BME280;8204;53.582;10.080;2023-04-10T20:20:04;100700.84;;;16.99;99.02
16194;BME280;8204;53.582;10.080;2023-04-10T20:22:34;100698.00;;;16.94;98.87
16194;BME280;8204;53.582;10.080;2023-04-10T20:25:04;100683.94;;;16.94;98.86
16194;BME280;8204;53.582;10.080;2023-04-10T20:27:36;100669.91;;;16.93;99.50
16194;BME280;8204;53.582;10.080;2023-04-10T20:30:07;100652.38;;;16.92;98.22
16194;BME280;8204;53.582;10.080;2023-04-10T20:32:36;100648.31;;;16.90;99.36
16194;BME280;8204;53.582;10.080;2023-04-10T20:35:08;100651.16;;;16.88;99.27
16194;BME280;8204;53.582;10.080;2023-04-10T20:37:37;100646.66;;;16.89;99.27
16194;BME280;8204;53.582;10.080;2023-04-10T20:40:08;100630.78;;;16.89;99.89
16194;BME280;8204;53.582;10.080;2023-04-10T20:42:41;100622.44;;;16.85;99.82
16194;BME280;8204;53.582;10.080;2023-04-10T20:45:10;100621.63;;;16.85;99.24
16194;BME280;8204;53.582;10.080;2023-04-10T20:47:39;100614.09;;;16.82;98.87
16194;BME280;8204;53.582;10.080;2023-04-10T20:50:09;100602.47;;;16.83;98.68
16194;BME280;8204;53.582;10.080;2023-04-10T20:52:38;100605.34;;;16.82;99.30
16194;BME280;8204;53.582;10.080;2023-04-10T20:55:08;100605.09;;;16.77;98.46
16194;BME280;8204;53.582;10.080;2023-04-10T20:57:36;100589.22;;;16.77;98.30
16194;BME280;8204;53.582;10.080;2023-04-10T21:00:10;100593.69;;;16.70;98.60
16194;BME280;8204;53.582;10.080;2023-04-10T21:02:39;100586.38;;;16.65;99.08
16194;BME280;8204;53.582;10.080;2023-04-10T21:05:08;100583.09;;;16.70;98.26
16194;BME280;8204;53.582;10.080;2023-04-10T21:07:37;100568.47;;;16.61;98.29
16194;BME280;8204;53.582;10.080;2023-04-10T21:10:07;100566.81;;;16.60;98.28
16194;BME280;8204;53.582;10.080;2023-04-10T21:12:36;100566.03;;;16.66;98.32
16194;BME280;8204;53.582;10.080;2023-04-10T21:15:09;100551.56;;;16.62;97.96
16194;BME280;8204;53.582;10.080;2023-04-10T21:17:37;100550.94;;;16.60;99.38
16194;BME280;8204;53.582;10.080;2023-04-10T21:20:07;100556.63;;;16.57;98.60
16194;BME280;8204;53.582;10.080;2023-04-10T21:22:36;100546.44;;;16.47;98.37
16194;BME280;8204;53.582;10.080;2023-04-10T21:25:06;100543.00;;;16.47;98.94
16194;BME280;8204;53.582;10.080;2023-04-10T21:27:35;100547.28;;;16.48;99.30
16194;BME280;8204;53.582;10.080;2023-04-10T21:30:05;100540.34;;;16.47;99.21
16194;BME280;8204;53.582;10.080;2023-04-10T21:32:36;100556.59;;;16.44;98.35
16194;BME280;8204;53.582;10.080;2023-04-10T21:35:06;100550.72;;;16.42;98.60
16194;BME280;8204;53.582;10.080;2023-04-10T21:37:35;100544.44;;;16.43;99.71
16194;BME280;8204;53.582;10.080;2023-04-10T21:40:05;100572.47;;;16.44;98.81
16194;BME280;8204;53.582;10.080;2023-04-10T21:42:35;100583.78;;;16.18;100.00
16194;BME280;8204;53.582;10.080;2023-04-10T21:45:05;100579.28;;;16.19;100.00
16194;BME280;8204;53.582;10.080;2023-04-10T21:47:37;100592.25;;;16.07;100.00
16194;BME280;8204;53.582;10.080;2023-04-10T21:50:07;100585.31;;;16.00;100.00
16194;BME280;8204;53.582;10.080;2023-04-10T21:52:36;100584.47;;;15.93;100.00
16194;BME280;8204;53.582;10.080;2023-04-10T21:55:06;100589.53;;;15.88;100.00
16194;BME280;8204;53.582;10.080;2023-04-10T21:57:35;100581.06;;;15.65;100.00
16194;BME280;8204;53.582;10.080;2023-04-10T22:00:05;100571.22;;;15.46;100.00
16194;BME280;8204;53.582;10.080;2023-04-10T22:02:37;100563.91;;;15.48;100.00
16194;BME280;8204;53.582;10.080;2023-04-10T22:05:06;100569.13;;;15.42;100.00
16194;BME280;8204;53.582;10.080;2023-04-10T22:07:36;100571.41;;;15.18;100.00
16194;BME280;8204;53.582;10.080;2023-04-10T22:10:06;100558.94;;;15.32;100.00
16194;BME280;8204;53.582;10.080;2023-04-10T22:12:35;100570.25;;;15.27;100.00
16194;BME280;8204;53.582;10.080;2023-04-10T22:15:05;100559.44;;;15.22;100.00
16194;BME280;8204;53.582;10.080;2023-04-10T22:17:36;100560.22;;;15.16;100.00
16194;BME280;8204;53.582;10.080;2023-04-10T22:20:08;100550.28;;;15.18;100.00
16194;BME280;8204;53.582;10.080;2023-04-10T22:22:37;100543.91;;;15.06;100.00
16194;BME280;8204;53.582;10.080;2023-04-10T22:25:06;100549.31;;;14.98;100.00
16194;BME280;8204;53.582;10.080;2023-04-10T22:27:35;100540.66;;;14.83;100.00
16194;BME280;8204;53.582;10.080;2023-04-10T22:30:06;100534.16;;;14.79;100.00
16194;BME280;8204;53.582;10.080;2023-04-10T22:32:37;100541.56;;;14.69;100.00
16194;BME280;8204;53.582;10.080;2023-04-10T22:35:07;100546.25;;;14.53;100.00
16194;BME280;8204;53.582;10.080;2023-04-10T22:37:36;100533.91;;;14.53;100.00
16194;BME280;8204;53.582;10.080;2023-04-10T22:40:07;100510.50;;;14.44;100.00
16194;BME280;8204;53.582;10.080;2023-04-10T22:42:36;100450.56;;;14.31;100.00
16194;BME280;8204;53.582;10.080;2023-04-10T22:45:06;100423.69;;;14.21;100.00
16194;BME280;8204;53.582;10.080;2023-04-10T22:47:37;100400.41;;;14.04;100.00
16194;BME280;8204;53.582;10.080;2023-04-10T22:50:07;100388.13;;;13.90;100.00
16194;BME280;8204;53.582;10.080;2023-04-10T22:52:37;100376.16;;;13.87;100.00
16194;BME280;8204;53.582;10.080;2023-04-10T22:55:07;100310.72;;;13.91;100.00
16194;BME280;8204;53.582;10.080;2023-04-10T22:57:36;100342.47;;;13.83;100.00
16194;BME280;8204;53.582;10.080;2023-04-10T23:00:07;100326.84;;;13.82;100.00
16194;BME280;8204;53.582;10.080;2023-04-10T23:02:38;100284.44;;;13.77;100.00
16194;BME280;8204;53.582;10.080;2023-04-10T23:05:08;100238.56;;;13.85;100.00
16194;BME280;8204;53.582;10.080;2023-04-10T23:07:37;100248.53;;;13.90;100.00
16194;BME280;8204;53.582;10.080;2023-04-10T23:10:07;100248.53;;;13.90;100.00
16194;BME280;8204;53.582;10.080;2023-04-10T23:12:36;100265.13;;;13.90;100.00
16194;BME280;8204;53.582;10.080;2023-04-10T23:15:06;100246.88;;;13.89;100.00
16194;BME280;8204;53.582;10.080;2023-04-10T23:17:38;100266.66;;;13.79;100.00
16194;BME280;8204;53.582;10.080;2023-04-10T23:20:07;100287.72;;;13.58;100.00
16194;BME280;8204;53.582;10.080;2023-04-10T23:22:36;100254.94;;;13.60;100.00
16194;BME280;8204;53.582;10.080;2023-04-10T23:25:06;100245.63;;;13.37;100.00
16194;BME280;8204;53.582;10.080;2023-04-10T23:27:35;100208.09;;;13.49;100.00
16194;BME280;8204;53.582;10.080;2023-04-10T23:30:05;100215.06;;;13.15;100.00
16194;BME280;8204;53.582;10.080;2023-04-10T23:32:34;100192.44;;;13.20;100.00
16194;BME280;8204;53.582;10.080;2023-04-10T23:35:07;100169.56;;;13.21;100.00
16194;BME280;8204;53.582;10.080;2023-04-10T23:37:36;100175.63;;;13.21;100.00
16194;BME280;8204;53.582;10.080;2023-04-10T23:40:06;100169.78;;;12.99;100.00
16194;BME280;8204;53.582;10.080;2023-04-10T23:42:35;100151.22;;;12.86;100.00
16194;BME280;8204;53.582;10.080;2023-04-10T23:45:05;100132.78;;;12.86;100.00
16194;BME280;8204;53.582;10.080;2023-04-10T23:47:34;100121.13;;;12.88;100.00
16194;BME280;8204;53.582;10.080;2023-04-10T23:50:06;100091.84;;;12.77;100.00
16194;BME280;8204;53.582;10.080;2023-04-10T23:52:35;100059.97;;;12.86;100.00
16194;BME280;8204;53.582;10.080;2023-04-10T23:55:05;100070.88;;;12.83;100.00
16194;BME280;8204;53.582;10.080;2023-04-10T23:57:34;100031.72;;;12.88;100.00
